sensor_id;sensor_type;location;lat;lon;timestamp;temperature;humidity
44513;DHT22;30219;50.588;9.504;2022-08-14T00:01:06;18.30;99.90
44513;DHT22;30219;50.588;9.504;2022-08-14T00:03:32;18.20;99.90
44513;DHT22;30219;50.588;9.504;2022-08-14T00:06:00;18.20;99.90
44513;DHT22;30219;50.588;9.504;2022-08-14T00:08:27;18.10;99.90
44513;DHT22;30219;50.588;9.504;2022-08-14T00:10:53;18.10;99.90
44513;DHT22;30219;50.588;9.504;2022-08-14T00:13:20;18.20;99.90
44513;DHT22;30219;50.588;9.504;2022-08-14T00:15:48;18.20;99.90
44513;DHT22;30219;50.588;9.504;2022-08-14T00:18:17;18.10;99.90
44513;DHT22;30219;50.588;9.504;2022-08-14T00:20:43;17.90;99.90
44513;DHT22;30219;50.588;9.504;2022-08-14T00:23:10;17.80;99.90
44513;DHT22;30219;50.588;9.504;2022-08-14T00:25:36;17.80;99.90
44513;DHT22;30219;50.588;9.504;2022-08-14T00:28:03;18.00;99.90
44513;DHT22;30219;50.588;9.504;2022-08-14T00:30:29;18.00;99.90
44513;DHT22;30219;50.588;9.504;2022-08-14T00:32:55;18.10;99.90
44513;DHT22;30219;50.588;9.504;2022-08-14T00:35:20;18.00;99.90
44513;DHT22;30219;50.588;9.504;2022-08-14T00:37:46;18.00;99.90
44513;DHT22;30219;50.588;9.504;2022-08-14T00:40:15;17.80;99.90
44513;DHT22;30219;50.588;9.504;2022-08-14T00:42:42;17.70;99.90
44513;DHT22;30219;50.588;9.504;2022-08-14T00:45:10;17.60;99.90
44513;DHT22;30219;50.588;9.504;2022-08-14T00:47:38;17.50;99.90
44513;DHT22;30219;50.588;9.504;2022-08-14T00:50:05;17.50;99.90
44513;DHT22;30219;50.588;9.504;2022-08-14T00:52:32;17.50;99.90
44513;DHT22;30219;50.588;9.504;2022-08-14T00:54:58;17.50;99.90
44513;DHT22;30219;50.588;9.504;2022-08-14T00:57:27;17.40;99.90
44513;DHT22;30219;50.588;9.504;2022-08-14T00:59:54;17.40;99.90
44513;DHT22;30219;50.588;9.504;2022-08-14T01:02:22;17.50;99.90
44513;DHT22;30219;50.588;9.504;2022-08-14T01:04:57;17.60;99.90
44513;DHT22;30219;50.588;9.504;2022-08-14T01:07:24;17.50;99.90
44513;DHT22;30219;50.588;9.504;2022-08-14T01:09:59;17.40;99.90
44513;DHT22;30219;50.588;9.504;2022-08-14T01:12:30;17.50;99.90
44513;DHT22;30219;50.588;9.504;2022-08-14T01:14:59;17.50;99.90
44513;DHT22;30219;50.588;9.504;2022-08-14T01:17:27;17.50;99.90
44513;DHT22;30219;50.588;9.504;2022-08-14T01:20:12;17.50;99.90
44513;DHT22;30219;50.588;9.504;2022-08-14T01:22:57;17.40;99.90
44513;DHT22;30219;50.588;9.504;2022-08-14T01:25:22;17.40;99.90
44513;DHT22;30219;50.588;9.504;2022-08-14T01:27:49;17.20;99.90
44513;DHT22;30219;50.588;9.504;2022-08-14T01:30:15;17.00;99.90
44513;DHT22;30219;50.588;9.504;2022-08-14T01:32:41;16.90;99.90
44513;DHT22;30219;50.588;9.504;2022-08-14T01:35:06;16.70;99.90
44513;DHT22;30219;50.588;9.504;2022-08-14T01:37:33;16.70;99.90
44513;DHT22;30219;50.588;9.504;2022-08-14T01:39:58;16.70;99.90
44513;DHT22;30219;50.588;9.504;2022-08-14T01:42:24;16.70;99.90
44513;DHT22;30219;50.588;9.504;2022-08-14T01:44:54;16.70;99.90
44513;DHT22;30219;50.588;9.504;2022-08-14T01:47:22;16.70;99.90
44513;DHT22;30219;50.588;9.504;2022-08-14T01:49:49;16.70;99.90
44513;DHT22;30219;50.588;9.504;2022-08-14T01:52:16;16.70;99.90
44513;DHT22;30219;50.588;9.504;2022-08-14T01:54:42;16.60;99.90
44513;DHT22;30219;50.588;9.504;2022-08-14T01:57:08;16.70;99.90
44513;DHT22;30219;50.588;9.504;2022-08-14T01:59:36;16.80;99.90
44513;DHT22;30219;50.588;9.504;2022-08-14T02:02:08;16.80;99.90
44513;DHT22;30219;50.588;9.504;2022-08-14T02:04:39;16.80;99.90
44513;DHT22;30219;50.588;9.504;2022-08-14T02:07:06;16.60;99.90
44513;DHT22;30219;50.588;9.504;2022-08-14T02:09:32;16.60;99.90
44513;DHT22;30219;50.588;9.504;2022-08-14T02:12:01;16.50;99.90
44513;DHT22;30219;50.588;9.504;2022-08-14T02:14:27;16.30;99.90
44513;DHT22;30219;50.588;9.504;2022-08-14T02:16:53;16.20;99.90
44513;DHT22;30219;50.588;9.504;2022-08-14T02:19:23;16.10;99.90
44513;DHT22;30219;50.588;9.504;2022-08-14T02:21:53;16.10;99.90
44513;DHT22;30219;50.588;9.504;2022-08-14T02:24:21;16.00;99.90
44513;DHT22;30219;50.588;9.504;2022-08-14T02:26:49;16.10;99.90
44513;DHT22;30219;50.588;9.504;2022-08-14T02:29:18;16.10;99.90
44513;DHT22;30219;50.588;9.504;2022-08-14T02:31:49;16.10;99.90
44513;DHT22;30219;50.588;9.504;2022-08-14T02:34:18;16.10;99.90
44513;DHT22;30219;50.588;9.504;2022-08-14T02:36:48;16.10;99.90
44513;DHT22;30219;50.588;9.504;2022-08-14T02:39:14;16.10;99.90
44513;DHT22;30219;50.588;9.504;2022-08-14T02:41:40;16.00;99.90
44513;DHT22;30219;50.588;9.504;2022-08-14T02:44:07;16.10;99.90
44513;DHT22;30219;50.588;9.504;2022-08-14T02:46:35;16.20;99.90
44513;DHT22;30219;50.588;9.504;2022-08-14T02:49:01;16.10;99.90
44513;DHT22;30219;50.588;9.504;2022-08-14T02:51:27;15.90;99.90
44513;DHT22;30219;50.588;9.504;2022-08-14T02:53:54;15.80;99.90
44513;DHT22;30219;50.588;9.504;2022-08-14T02:56:20;15.90;99.90
44513;DHT22;30219;50.588;9.504;2022-08-14T02:58:48;15.90;99.90
44513;DHT22;30219;50.588;9.504;2022-08-14T03:01:18;15.90;99.90
44513;DHT22;30219;50.588;9.504;2022-08-14T03:03:45;15.80;99.90
44513;DHT22;30219;50.588;9.504;2022-08-14T03:06:14;15.70;99.90
44513;DHT22;30219;50.588;9.504;2022-08-14T03:08:41;15.60;99.90
44513;DHT22;30219;50.588;9.504;2022-08-14T03:11:09;15.50;99.90
44513;DHT22;30219;50.588;9.504;2022-08-14T03:13:43;15.50;99.90
44513;DHT22;30219;50.588;9.504;2022-08-14T03:16:11;15.40;99.90
44513;DHT22;30219;50.588;9.504;2022-08-14T03:18:41;15.40;99.90
44513;DHT22;30219;50.588;9.504;2022-08-14T03:21:09;15.40;99.90
44513;DHT22;30219;50.588;9.504;2022-08-14T03:23:43;15.50;99.90
44513;DHT22;30219;50.588;9.504;2022-08-14T03:26:11;15.40;99.90
44513;DHT22;30219;50.588;9.504;2022-08-14T03:28:37;15.40;99.90
44513;DHT22;30219;50.588;9.504;2022-08-14T03:31:06;15.40;99.90
44513;DHT22;30219;50.588;9.504;2022-08-14T03:33:33;15.60;99.90
44513;DHT22;30219;50.588;9.504;2022-08-14T03:36:03;15.60;99.90
44513;DHT22;30219;50.588;9.504;2022-08-14T03:38:33;15.60;99.90
44513;DHT22;30219;50.588;9.504;2022-08-14T03:40:58;15.70;99.90
44513;DHT22;30219;50.588;9.504;2022-08-14T03:43:24;15.70;99.90
44513;DHT22;30219;50.588;9.504;2022-08-14T03:45:51;15.60;99.90
44513;DHT22;30219;50.588;9.504;2022-08-14T03:48:17;15.40;99.90
44513;DHT22;30219;50.588;9.504;2022-08-14T03:50:48;15.40;99.90
44513;DHT22;30219;50.588;9.504;2022-08-14T03:53:16;15.30;99.90
44513;DHT22;30219;50.588;9.504;2022-08-14T03:55:43;15.20;99.90
44513;DHT22;30219;50.588;9.504;2022-08-14T03:58:09;15.10;99.90
44513;DHT22;30219;50.588;9.504;2022-08-14T04:00:37;15.10;99.90
44513;DHT22;30219;50.588;9.504;2022-08-14T04:03:04;15.10;99.90
44513;DHT22;30219;50.588;9.504;2022-08-14T04:05:31;15.00;99.90
44513;DHT22;30219;50.588;9.504;2022-08-14T04:07:57;14.90;99.90
44513;DHT22;30219;50.588;9.504;2022-08-14T04:10:23;14.90;99.90
44513;DHT22;30219;50.588;9.504;2022-08-14T04:12:51;14.90;99.90
44513;DHT22;30219;50.588;9.504;2022-08-14T04:15:17;14.80;99.90
44513;DHT22;30219;50.588;9.504;2022-08-14T04:17:49;14.70;99.90
44513;DHT22;30219;50.588;9.504;2022-08-14T04:20:17;14.70;99.90
44513;DHT22;30219;50.588;9.504;2022-08-14T04:22:43;14.70;99.90
44513;DHT22;30219;50.588;9.504;2022-08-14T04:25:10;14.80;99.90
44513;DHT22;30219;50.588;9.504;2022-08-14T04:27:36;14.90;99.90
44513;DHT22;30219;50.588;9.504;2022-08-14T04:30:03;14.90;99.90
44513;DHT22;30219;50.588;9.504;2022-08-14T04:32:30;14.90;99.90
44513;DHT22;30219;50.588;9.504;2022-08-14T04:34:58;14.80;99.90
44513;DHT22;30219;50.588;9.504;2022-08-14T04:37:25;15.00;99.90
44513;DHT22;30219;50.588;9.504;2022-08-14T04:40:09;15.10;99.90
44513;DHT22;30219;50.588;9.504;2022-08-14T04:42:54;15.10;99.90
44513;DHT22;30219;50.588;9.504;2022-08-14T04:45:39;15.20;99.90
44513;DHT22;30219;50.588;9.504;2022-08-14T04:48:10;15.30;99.90
44513;DHT22;30219;50.588;9.504;2022-08-14T04:50:44;15.30;99.90
44513;DHT22;30219;50.588;9.504;2022-08-14T04:53:21;15.30;99.90
44513;DHT22;30219;50.588;9.504;2022-08-14T04:55:51;15.30;99.90
44513;DHT22;30219;50.588;9.504;2022-08-14T04:58:26;15.50;99.90
44513;DHT22;30219;50.588;9.504;2022-08-14T05:01:03;15.60;99.90
44513;DHT22;30219;50.588;9.504;2022-08-14T05:03:33;15.90;99.90
44513;DHT22;30219;50.588;9.504;2022-08-14T05:06:04;16.20;99.90
44513;DHT22;30219;50.588;9.504;2022-08-14T05:08:32;16.40;99.90
44513;DHT22;30219;50.588;9.504;2022-08-14T05:11:02;16.80;99.90
44513;DHT22;30219;50.588;9.504;2022-08-14T05:13:29;17.10;99.90
44513;DHT22;30219;50.588;9.504;2022-08-14T05:16:04;17.40;99.90
44513;DHT22;30219;50.588;9.504;2022-08-14T05:18:41;17.60;99.90
44513;DHT22;30219;50.588;9.504;2022-08-14T05:21:11;17.70;99.90
44513;DHT22;30219;50.588;9.504;2022-08-14T05:23:38;17.90;99.90
44513;DHT22;30219;50.588;9.504;2022-08-14T05:26:07;18.10;99.90
44513;DHT22;30219;50.588;9.504;2022-08-14T05:28:43;18.30;99.90
44513;DHT22;30219;50.588;9.504;2022-08-14T05:31:16;18.70;99.90
44513;DHT22;30219;50.588;9.504;2022-08-14T05:33:43;18.90;99.90
44513;DHT22;30219;50.588;9.504;2022-08-14T05:36:20;19.10;99.90
44513;DHT22;30219;50.588;9.504;2022-08-14T05:38:49;19.40;99.90
44513;DHT22;30219;50.588;9.504;2022-08-14T05:41:17;19.70;99.90
44513;DHT22;30219;50.588;9.504;2022-08-14T05:43:44;20.00;99.90
44513;DHT22;30219;50.588;9.504;2022-08-14T05:46:13;20.20;99.90
44513;DHT22;30219;50.588;9.504;2022-08-14T05:48:42;20.40;99.90
44513;DHT22;30219;50.588;9.504;2022-08-14T05:51:10;20.50;99.90
44513;DHT22;30219;50.588;9.504;2022-08-14T05:53:36;20.80;99.90
44513;DHT22;30219;50.588;9.504;2022-08-14T05:56:02;21.40;99.90
44513;DHT22;30219;50.588;9.504;2022-08-14T05:58:28;21.70;99.00
44513;DHT22;30219;50.588;9.504;2022-08-14T06:00:53;22.00;98.90
44513;DHT22;30219;50.588;9.504;2022-08-14T06:03:23;22.30;98.30
44513;DHT22;30219;50.588;9.504;2022-08-14T06:05:52;22.60;97.60
44513;DHT22;30219;50.588;9.504;2022-08-14T06:08:24;23.00;97.30
44513;DHT22;30219;50.588;9.504;2022-08-14T06:10:54;23.10;96.50
44513;DHT22;30219;50.588;9.504;2022-08-14T06:13:25;23.40;96.30
44513;DHT22;30219;50.588;9.504;2022-08-14T06:15:50;23.70;95.80
44513;DHT22;30219;50.588;9.504;2022-08-14T06:18:17;24.00;95.50
44513;DHT22;30219;50.588;9.504;2022-08-14T06:20:43;24.40;95.00
44513;DHT22;30219;50.588;9.504;2022-08-14T06:23:11;24.70;94.40
44513;DHT22;30219;50.588;9.504;2022-08-14T06:25:40;24.90;93.80
44513;DHT22;30219;50.588;9.504;2022-08-14T06:28:06;25.20;93.30
44513;DHT22;30219;50.588;9.504;2022-08-14T06:30:33;25.40;93.00
44513;DHT22;30219;50.588;9.504;2022-08-14T06:32:59;25.60;92.70
44513;DHT22;30219;50.588;9.504;2022-08-14T06:35:25;25.90;92.00
44513;DHT22;30219;50.588;9.504;2022-08-14T06:37:55;25.90;91.70
44513;DHT22;30219;50.588;9.504;2022-08-14T06:40:32;26.10;91.60
44513;DHT22;30219;50.588;9.504;2022-08-14T06:43:00;26.40;91.40
44513;DHT22;30219;50.588;9.504;2022-08-14T06:45:30;26.70;91.00
44513;DHT22;30219;50.588;9.504;2022-08-14T06:47:56;27.10;90.70
44513;DHT22;30219;50.588;9.504;2022-08-14T06:50:23;27.40;90.00
44513;DHT22;30219;50.588;9.504;2022-08-14T06:52:51;27.60;89.70
44513;DHT22;30219;50.588;9.504;2022-08-14T06:55:17;27.80;88.50
44513;DHT22;30219;50.588;9.504;2022-08-14T06:57:49;27.90;87.90
44513;DHT22;30219;50.588;9.504;2022-08-14T07:00:23;28.10;87.90
44513;DHT22;30219;50.588;9.504;2022-08-14T07:02:52;28.50;86.70
44513;DHT22;30219;50.588;9.504;2022-08-14T07:05:40;28.80;85.20
44513;DHT22;30219;50.588;9.504;2022-08-14T07:08:26;29.00;85.70
44513;DHT22;30219;50.588;9.504;2022-08-14T07:10:55;29.10;84.40
44513;DHT22;30219;50.588;9.504;2022-08-14T07:13:23;29.40;83.30
44513;DHT22;30219;50.588;9.504;2022-08-14T07:15:51;29.60;83.30
44513;DHT22;30219;50.588;9.504;2022-08-14T07:18:23;29.80;82.80
44513;DHT22;30219;50.588;9.504;2022-08-14T07:20:49;29.90;81.90
44513;DHT22;30219;50.588;9.504;2022-08-14T07:23:15;29.50;81.70
44513;DHT22;30219;50.588;9.504;2022-08-14T07:25:42;29.20;82.90
44513;DHT22;30219;50.588;9.504;2022-08-14T07:30:45;29.30;82.90
44513;DHT22;30219;50.588;9.504;2022-08-14T07:33:12;29.30;82.50
44513;DHT22;30219;50.588;9.504;2022-08-14T07:35:39;28.80;84.20
44513;DHT22;30219;50.588;9.504;2022-08-14T07:38:05;28.90;84.20
44513;DHT22;30219;50.588;9.504;2022-08-14T07:40:32;28.70;84.60
44513;DHT22;30219;50.588;9.504;2022-08-14T07:42:59;27.80;86.50
44513;DHT22;30219;50.588;9.504;2022-08-14T07:45:25;27.40;87.20
44513;DHT22;30219;50.588;9.504;2022-08-14T07:47:51;27.30;87.70
44513;DHT22;30219;50.588;9.504;2022-08-14T07:50:18;27.40;87.90
44513;DHT22;30219;50.588;9.504;2022-08-14T07:52:46;27.20;87.70
44513;DHT22;30219;50.588;9.504;2022-08-14T07:55:13;27.00;89.00
44513;DHT22;30219;50.588;9.504;2022-08-14T07:57:40;27.30;88.40
44513;DHT22;30219;50.588;9.504;2022-08-14T08:00:13;27.60;87.80
44513;DHT22;30219;50.588;9.504;2022-08-14T08:02:42;27.50;88.20
44513;DHT22;30219;50.588;9.504;2022-08-14T08:05:09;27.40;88.00
44513;DHT22;30219;50.588;9.504;2022-08-14T08:07:37;27.70;87.50
44513;DHT22;30219;50.588;9.504;2022-08-14T08:10:11;27.60;87.80
44513;DHT22;30219;50.588;9.504;2022-08-14T08:15:23;27.80;87.40
44513;DHT22;30219;50.588;9.504;2022-08-14T08:17:50;27.90;87.60
44513;DHT22;30219;50.588;9.504;2022-08-14T08:20:17;28.20;86.50
44513;DHT22;30219;50.588;9.504;2022-08-14T08:22:44;28.70;86.10
44513;DHT22;30219;50.588;9.504;2022-08-14T08:25:10;29.00;84.80
44513;DHT22;30219;50.588;9.504;2022-08-14T08:27:36;29.30;84.30
44513;DHT22;30219;50.588;9.504;2022-08-14T08:30:08;29.70;83.30
44513;DHT22;30219;50.588;9.504;2022-08-14T08:32:42;29.70;81.50
44513;DHT22;30219;50.588;9.504;2022-08-14T08:35:37;29.30;82.60
44513;DHT22;30219;50.588;9.504;2022-08-14T08:38:09;29.80;81.40
44513;DHT22;30219;50.588;9.504;2022-08-14T08:45:41;28.60;82.80
44513;DHT22;30219;50.588;9.504;2022-08-14T08:48:07;28.10;83.10
44513;DHT22;30219;50.588;9.504;2022-08-14T08:50:37;28.30;83.40
44513;DHT22;30219;50.588;9.504;2022-08-14T08:53:06;28.40;83.00
44513;DHT22;30219;50.588;9.504;2022-08-14T08:55:37;28.40;83.40
44513;DHT22;30219;50.588;9.504;2022-08-14T08:58:09;28.20;83.60
44513;DHT22;30219;50.588;9.504;2022-08-14T09:00:37;28.00;83.90
44513;DHT22;30219;50.588;9.504;2022-08-14T09:03:08;27.70;83.90
44513;DHT22;30219;50.588;9.504;2022-08-14T09:05:36;28.00;84.10
44513;DHT22;30219;50.588;9.504;2022-08-14T09:10:35;28.50;83.90
44513;DHT22;30219;50.588;9.504;2022-08-14T09:13:02;29.10;82.00
44513;DHT22;30219;50.588;9.504;2022-08-14T09:15:27;29.00;81.30
44513;DHT22;30219;50.588;9.504;2022-08-14T09:17:53;29.30;81.10
44513;DHT22;30219;50.588;9.504;2022-08-14T09:20:19;29.50;81.00
44513;DHT22;30219;50.588;9.504;2022-08-14T09:22:45;29.50;81.20
44513;DHT22;30219;50.588;9.504;2022-08-14T09:25:12;29.80;80.10
44513;DHT22;30219;50.588;9.504;2022-08-14T09:27:37;29.90;80.10
44513;DHT22;30219;50.588;9.504;2022-08-14T09:30:05;29.50;80.40
44513;DHT22;30219;50.588;9.504;2022-08-14T09:32:42;29.70;79.60
44513;DHT22;30219;50.588;9.504;2022-08-14T09:35:22;29.40;80.30
44513;DHT22;30219;50.588;9.504;2022-08-14T09:43:53;30.10;77.10
44513;DHT22;30219;50.588;9.504;2022-08-14T09:46:23;30.00;76.30
44513;DHT22;30219;50.588;9.504;2022-08-14T09:49:04;30.00;76.70
44513;DHT22;30219;50.588;9.504;2022-08-14T09:51:31;29.60;77.10
44513;DHT22;30219;50.588;9.504;2022-08-14T09:54:06;29.40;76.80
44513;DHT22;30219;50.588;9.504;2022-08-14T09:56:49;30.00;75.80
44513;DHT22;30219;50.588;9.504;2022-08-14T09:59:17;30.00;75.40
44513;DHT22;30219;50.588;9.504;2022-08-14T10:01:47;29.70;75.60
44513;DHT22;30219;50.588;9.504;2022-08-14T10:04:21;30.00;75.20
44513;DHT22;30219;50.588;9.504;2022-08-14T10:06:49;30.00;75.80
44513;DHT22;30219;50.588;9.504;2022-08-14T10:09:16;30.30;74.00
44513;DHT22;30219;50.588;9.504;2022-08-14T10:11:56;30.30;73.50
44513;DHT22;30219;50.588;9.504;2022-08-14T10:14:24;30.10;74.70
44513;DHT22;30219;50.588;9.504;2022-08-14T10:16:55;29.90;74.10
44513;DHT22;30219;50.588;9.504;2022-08-14T10:19:24;29.50;74.50
44513;DHT22;30219;50.588;9.504;2022-08-14T10:24:24;29.70;75.40
44513;DHT22;30219;50.588;9.504;2022-08-14T10:26:55;29.70;74.50
44513;DHT22;30219;50.588;9.504;2022-08-14T10:29:41;29.70;74.50
44513;DHT22;30219;50.588;9.504;2022-08-14T10:32:07;29.80;74.50
44513;DHT22;30219;50.588;9.504;2022-08-14T10:34:37;30.10;74.40
44513;DHT22;30219;50.588;9.504;2022-08-14T10:37:12;30.10;74.70
44513;DHT22;30219;50.588;9.504;2022-08-14T10:39:43;30.30;73.00
44513;DHT22;30219;50.588;9.504;2022-08-14T10:42:15;30.60;73.30
44513;DHT22;30219;50.588;9.504;2022-08-14T10:44:43;30.70;72.00
44513;DHT22;30219;50.588;9.504;2022-08-14T10:47:12;31.00;71.90
44513;DHT22;30219;50.588;9.504;2022-08-14T10:49:40;30.80;71.90
44513;DHT22;30219;50.588;9.504;2022-08-14T10:52:21;30.30;72.60
44513;DHT22;30219;50.588;9.504;2022-08-14T10:54:47;30.30;73.10
44513;DHT22;30219;50.588;9.504;2022-08-14T10:57:20;30.60;73.00
44513;DHT22;30219;50.588;9.504;2022-08-14T10:59:58;30.50;72.60
44513;DHT22;30219;50.588;9.504;2022-08-14T11:02:32;30.30;72.40
44513;DHT22;30219;50.588;9.504;2022-08-14T11:07:31;30.00;73.30
44513;DHT22;30219;50.588;9.504;2022-08-14T11:09:59;29.50;73.40
44513;DHT22;30219;50.588;9.504;2022-08-14T11:12:26;29.30;73.80
44513;DHT22;30219;50.588;9.504;2022-08-14T11:15:03;29.60;73.70
44513;DHT22;30219;50.588;9.504;2022-08-14T11:17:32;30.20;73.60
44513;DHT22;30219;50.588;9.504;2022-08-14T11:20:04;30.60;72.60
44513;DHT22;30219;50.588;9.504;2022-08-14T11:22:31;30.90;71.10
44513;DHT22;30219;50.588;9.504;2022-08-14T11:25:05;30.40;71.50
44513;DHT22;30219;50.588;9.504;2022-08-14T11:27:32;30.60;71.40
44513;DHT22;30219;50.588;9.504;2022-08-14T11:30:05;30.30;72.00
44513;DHT22;30219;50.588;9.504;2022-08-14T11:32:31;30.40;72.30
44513;DHT22;30219;50.588;9.504;2022-08-14T11:35:01;30.80;71.20
44513;DHT22;30219;50.588;9.504;2022-08-14T11:37:28;30.70;71.60
44513;DHT22;30219;50.588;9.504;2022-08-14T11:39:58;30.00;71.00
44513;DHT22;30219;50.588;9.504;2022-08-14T11:42:25;30.10;70.70
44513;DHT22;30219;50.588;9.504;2022-08-14T11:45:02;29.80;71.00
44513;DHT22;30219;50.588;9.504;2022-08-14T11:47:31;29.90;71.10
44513;DHT22;30219;50.588;9.504;2022-08-14T11:49:57;29.90;70.70
44513;DHT22;30219;50.588;9.504;2022-08-14T11:52:32;29.90;71.00
44513;DHT22;30219;50.588;9.504;2022-08-14T11:54:58;29.90;71.00
44513;DHT22;30219;50.588;9.504;2022-08-14T11:57:25;30.10;70.80
44513;DHT22;30219;50.588;9.504;2022-08-14T12:00:02;30.60;71.60
44513;DHT22;30219;50.588;9.504;2022-08-14T12:02:29;31.20;70.40
44513;DHT22;30219;50.588;9.504;2022-08-14T12:04:55;31.60;69.60
44513;DHT22;30219;50.588;9.504;2022-08-14T12:07:20;32.10;69.90
44513;DHT22;30219;50.588;9.504;2022-08-14T12:09:51;31.70;68.40
44513;DHT22;30219;50.588;9.504;2022-08-14T12:12:20;31.30;68.30
44513;DHT22;30219;50.588;9.504;2022-08-14T12:17:25;30.80;68.10
44513;DHT22;30219;50.588;9.504;2022-08-14T12:19:54;30.20;69.30
44513;DHT22;30219;50.588;9.504;2022-08-14T12:22:37;29.80;69.90
44513;DHT22;30219;50.588;9.504;2022-08-14T12:25:12;29.90;71.00
44513;DHT22;30219;50.588;9.504;2022-08-14T12:27:40;30.50;70.40
44513;DHT22;30219;50.588;9.504;2022-08-14T12:30:07;30.30;70.10
44513;DHT22;30219;50.588;9.504;2022-08-14T12:32:41;30.80;70.90
44513;DHT22;30219;50.588;9.504;2022-08-14T12:35:09;31.30;69.50
44513;DHT22;30219;50.588;9.504;2022-08-14T12:37:35;31.50;68.30
44513;DHT22;30219;50.588;9.504;2022-08-14T12:40:13;31.50;68.70
44513;DHT22;30219;50.588;9.504;2022-08-14T12:42:39;30.80;69.00
44513;DHT22;30219;50.588;9.504;2022-08-14T12:45:06;30.60;69.40
44513;DHT22;30219;50.588;9.504;2022-08-14T12:47:32;30.40;69.70
44513;DHT22;30219;50.588;9.504;2022-08-14T12:49:58;30.30;70.80
44513;DHT22;30219;50.588;9.504;2022-08-14T12:52:36;30.60;71.70
44513;DHT22;30219;50.588;9.504;2022-08-14T12:55:10;30.60;70.70
44513;DHT22;30219;50.588;9.504;2022-08-14T12:57:38;30.50;70.40
44513;DHT22;30219;50.588;9.504;2022-08-14T13:00:19;30.40;70.30
44513;DHT22;30219;50.588;9.504;2022-08-14T13:02:47;29.90;70.80
44513;DHT22;30219;50.588;9.504;2022-08-14T13:05:14;29.70;71.40
44513;DHT22;30219;50.588;9.504;2022-08-14T13:07:41;29.80;71.60
44513;DHT22;30219;50.588;9.504;2022-08-14T13:10:10;29.80;71.30
44513;DHT22;30219;50.588;9.504;2022-08-14T13:12:37;30.00;71.20
44513;DHT22;30219;50.588;9.504;2022-08-14T13:15:05;30.00;71.10
44513;DHT22;30219;50.588;9.504;2022-08-14T13:17:31;30.10;71.30
44513;DHT22;30219;50.588;9.504;2022-08-14T13:20:00;30.30;70.40
44513;DHT22;30219;50.588;9.504;2022-08-14T13:22:27;30.40;70.00
44513;DHT22;30219;50.588;9.504;2022-08-14T13:24:53;30.40;69.90
44513;DHT22;30219;50.588;9.504;2022-08-14T13:27:24;30.40;68.40
44513;DHT22;30219;50.588;9.504;2022-08-14T13:29:51;30.40;67.70
44513;DHT22;30219;50.588;9.504;2022-08-14T13:32:18;30.60;68.40
44513;DHT22;30219;50.588;9.504;2022-08-14T13:34:47;30.80;68.20
44513;DHT22;30219;50.588;9.504;2022-08-14T13:37:17;30.80;67.90
44513;DHT22;30219;50.588;9.504;2022-08-14T13:39:52;31.00;68.00
44513;DHT22;30219;50.588;9.504;2022-08-14T13:42:19;31.40;68.20
44513;DHT22;30219;50.588;9.504;2022-08-14T13:44:48;31.50;66.60
44513;DHT22;30219;50.588;9.504;2022-08-14T13:47:15;31.20;66.80
44513;DHT22;30219;50.588;9.504;2022-08-14T13:49:47;31.10;67.50
44513;DHT22;30219;50.588;9.504;2022-08-14T13:52:21;30.70;67.20
44513;DHT22;30219;50.588;9.504;2022-08-14T13:54:52;30.60;67.90
44513;DHT22;30219;50.588;9.504;2022-08-14T13:57:18;30.70;68.10
44513;DHT22;30219;50.588;9.504;2022-08-14T13:59:47;30.90;67.50
44513;DHT22;30219;50.588;9.504;2022-08-14T14:02:15;31.40;67.50
44513;DHT22;30219;50.588;9.504;2022-08-14T14:04:47;31.60;65.80
44513;DHT22;30219;50.588;9.504;2022-08-14T14:07:15;31.60;66.10
44513;DHT22;30219;50.588;9.504;2022-08-14T14:09:46;31.60;65.90
44513;DHT22;30219;50.588;9.504;2022-08-14T14:12:13;31.70;65.60
44513;DHT22;30219;50.588;9.504;2022-08-14T14:14:40;31.70;65.30
44513;DHT22;30219;50.588;9.504;2022-08-14T14:17:07;31.80;65.80
44513;DHT22;30219;50.588;9.504;2022-08-14T14:19:34;32.10;64.80
44513;DHT22;30219;50.588;9.504;2022-08-14T14:22:03;31.80;64.80
44513;DHT22;30219;50.588;9.504;2022-08-14T14:24:32;31.90;64.60
44513;DHT22;30219;50.588;9.504;2022-08-14T14:27:00;31.70;64.70
44513;DHT22;30219;50.588;9.504;2022-08-14T14:29:29;31.60;64.70
44513;DHT22;30219;50.588;9.504;2022-08-14T14:32:00;31.40;65.10
44513;DHT22;30219;50.588;9.504;2022-08-14T14:34:28;30.90;65.50
44513;DHT22;30219;50.588;9.504;2022-08-14T14:36:54;30.80;66.10
44513;DHT22;30219;50.588;9.504;2022-08-14T14:39:24;30.70;66.00
44513;DHT22;30219;50.588;9.504;2022-08-14T14:41:54;30.60;66.70
44513;DHT22;30219;50.588;9.504;2022-08-14T14:44:23;30.60;66.80
44513;DHT22;30219;50.588;9.504;2022-08-14T14:46:49;30.60;66.00
44513;DHT22;30219;50.588;9.504;2022-08-14T14:49:17;30.60;66.70
44513;DHT22;30219;50.588;9.504;2022-08-14T14:51:43;30.70;66.60
44513;DHT22;30219;50.588;9.504;2022-08-14T14:54:10;30.90;66.90
44513;DHT22;30219;50.588;9.504;2022-08-14T14:56:38;31.00;66.10
44513;DHT22;30219;50.588;9.504;2022-08-14T14:59:05;31.10;66.30
44513;DHT22;30219;50.588;9.504;2022-08-14T15:01:34;31.30;66.20
44513;DHT22;30219;50.588;9.504;2022-08-14T15:04:01;31.30;66.50
44513;DHT22;30219;50.588;9.504;2022-08-14T15:06:28;31.20;66.20
44513;DHT22;30219;50.588;9.504;2022-08-14T15:08:54;31.30;66.50
44513;DHT22;30219;50.588;9.504;2022-08-14T15:11:20;31.20;66.20
44513;DHT22;30219;50.588;9.504;2022-08-14T15:13:46;31.30;67.00
44513;DHT22;30219;50.588;9.504;2022-08-14T15:16:12;31.40;66.20
44513;DHT22;30219;50.588;9.504;2022-08-14T15:18:38;31.30;66.10
44513;DHT22;30219;50.588;9.504;2022-08-14T15:21:04;31.40;66.20
44513;DHT22;30219;50.588;9.504;2022-08-14T15:23:30;31.60;66.30
44513;DHT22;30219;50.588;9.504;2022-08-14T15:25:56;31.50;65.90
44513;DHT22;30219;50.588;9.504;2022-08-14T15:28:23;31.20;66.20
44513;DHT22;30219;50.588;9.504;2022-08-14T15:30:50;31.10;66.70
44513;DHT22;30219;50.588;9.504;2022-08-14T15:33:16;30.70;67.00
44513;DHT22;30219;50.588;9.504;2022-08-14T15:36:01;30.60;67.20
44513;DHT22;30219;50.588;9.504;2022-08-14T15:38:28;30.50;67.20
44513;DHT22;30219;50.588;9.504;2022-08-14T15:40:55;30.40;67.50
44513;DHT22;30219;50.588;9.504;2022-08-14T15:43:20;30.40;67.40
44513;DHT22;30219;50.588;9.504;2022-08-14T15:45:46;30.40;67.30
44513;DHT22;30219;50.588;9.504;2022-08-14T15:48:11;30.30;67.60
44513;DHT22;30219;50.588;9.504;2022-08-14T15:50:37;30.10;67.80
44513;DHT22;30219;50.588;9.504;2022-08-14T15:53:07;30.20;68.00
44513;DHT22;30219;50.588;9.504;2022-08-14T15:55:33;30.10;67.70
44513;DHT22;30219;50.588;9.504;2022-08-14T15:57:59;30.10;67.70
44513;DHT22;30219;50.588;9.504;2022-08-14T16:00:25;30.10;67.70
44513;DHT22;30219;50.588;9.504;2022-08-14T16:03:08;30.20;68.10
44513;DHT22;30219;50.588;9.504;2022-08-14T16:05:37;30.10;68.00
44513;DHT22;30219;50.588;9.504;2022-08-14T16:08:05;30.00;68.50